| Date | Time | Temp. (oF) | Dew Point (oF) | Rel. Hum. (%) | Press. (in.) | Wind Dir. | Wind Speed (mph) | Hourly Rainfall (in.) |
|
|---|---|---|---|---|---|---|---|---|---|
| 1 | 04/30 | 00:00 | 54 | 36 | 51 | 29.87 | SW | 2 | 0.00 |
| 2 | 04/29 | 23:00 | 57 | 34 | 42 | 29.86 | W | 0 | 0.00 |
| 3 | 04/29 | 22:00 | 60 | 34 | 38 | 29.85 | SW | 2 | 0.00 |
| 4 | 04/29 | 21:00 | 60 | 34 | 39 | 29.84 | WSW | 5 | 0.00 |
| 5 | 04/29 | 20:00 | 64 | 34 | 34 | 29.82 | SW | 2 | 0.00 |
| 6 | 04/29 | 19:00 | 68 | 34 | 29 | 29.80 | W | 3 | 0.00 |
| 7 | 04/29 | 18:00 | 69 | 32 | 26 | 29.80 | WSW | 8 | 0.00 |
| 8 | 04/29 | 17:00 | 70 | 34 | 27 | 29.80 | WSW | 9 | 0.00 |
| 9 | 04/29 | 16:00 | 69 | 36 | 31 | 29.82 | SW | 5 | 0.00 |
| 10 | 04/29 | 15:00 | 68 | 35 | 31 | 29.83 | W | 9 | 0.00 |
| 11 | 04/29 | 14:00 | 65 | 34 | 32 | 29.86 | W | 3 | 0.00 |
| 12 | 04/29 | 13:00 | 64 | 36 | 36 | 29.88 | WNW | 10 | 0.00 |
| 13 | 04/29 | 12:00 | 62 | 34 | 36 | 29.91 | NNW | 3 | 0.00 |
| 14 | 04/29 | 11:00 | 59 | 34 | 40 | 29.93 | NNW | 13 | 0.00 |
| 15 | 04/29 | 10:00 | 57 | 35 | 45 | 29.94 | NW | 8 | 0.00 |
| 16 | 04/29 | 09:00 | 52 | 34 | 52 | 29.95 | WNW | 2 | 0.00 |
| 17 | 04/29 | 08:00 | 48 | 34 | 60 | 29.95 | WSW | 4 | 0.00 |
| 18 | 04/29 | 07:00 | 42 | 30 | 64 | 29.93 | W | 3 | 0.00 |
| 19 | 04/29 | 06:00 | 42 | 29 | 61 | 29.92 | W | 4 | 0.00 |
| 20 | 04/29 | 05:00 | 42 | 29 | 60 | 29.91 | WSW | 4 | 0.00 |
| 21 | 04/29 | 04:00 | 43 | 29 | 58 | 29.89 | W | 2 | 0.00 |
| 22 | 04/29 | 03:00 | 45 | 28 | 52 | 29.87 | NW | 1 | 0.00 |
| 23 | 04/29 | 02:00 | 47 | 28 | 48 | 29.88 | W | 4 | 0.00 |
| 24 | 04/29 | 01:00 | 48 | 28 | 46 | 29.87 | NNW | 5 | 0.00 |